Data for 07/23/2016

Time Sea-Level Adjusted Pressure Absolute Pressure Temperature Relative Humidity Dew Point   
(mb) (inHg) (mb) (inHg) (C) (F) (%) (C) (F)
00:05 1021 30.15 851 25.13 17.4 63.3 42 4.5 40.1
00:10 1021 30.15 851 25.13 17.4 63.2 42 4.3 39.8
00:15 1021 30.15 851 25.13 17.4 63.2 42 4.4 40
00:20 1021 30.15 851 25.13 17.2 62.9 43 4.5 40
00:25 1021 30.15 851 25.13 17.2 62.9 43 4.4 40
00:30 1021 30.15 851 25.13 17.2 63 42 4.4 39.8
00:35 1021 30.15 851 25.13 17.2 63 42 4.4 39.9
00:40 1022 30.18 851 25.13 17.3 63.1 42 4.4 39.9
00:45 1022 30.18 851 25.13 17.3 63.1 42 4.2 39.6
00:50 1022 30.18 851 25.13 17.4 63.3 41 4.2 39.5
00:55 1022 30.18 851 25.13 17.5 63.4 41 4.2 39.6
01:00 1022 30.18 851 25.13 17.6 63.6 41 4.3 39.8
01:05 1022 30.18 851 25.13 17.5 63.6 41 4.4 39.8
01:10 1022 30.18 851 25.13 17.4 63.4 43 4.8 40.7
01:15 1022 30.18 851 25.13 17.3 63.2 42 4.3 39.8
01:20 1022 30.18 851 25.13 17.3 63.2 42 4.4 40
01:25 1022 30.18 851 25.13 17.3 63.1 43 4.7 40.5
01:30 1022 30.18 851 25.13 17 62.6 43 4.4 39.9
01:35 1022 30.18 851 25.13 16.7 62 44 4.5 40.1
01:40 1022 30.18 851 25.13 16.3 61.4 45 4.5 40.1
01:45 1022 30.18 851 25.13 16.2 61.2 46 4.6 40.2
01:50 1022 30.18 851 25.13 16 60.7 47 4.7 40.5
01:55 1022 30.18 851 25.13 15.8 60.5 47 4.7 40.5
02:00 1022 30.18 851 25.13 15.7 60.3 48 4.8 40.6
02:05 1022 30.18 851 25.13 15.6 60 49 4.9 40.7
02:10 1022 30.18 851 25.13 15.5 59.9 49 4.8 40.7
02:15 1022 30.18 851 25.13 15.4 59.8 50 5.1 41.2
02:20 1022 30.18 851 25.13 15.1 59.2 52 5.4 41.7
02:25 1022 30.18 851 25.13 14.6 58.3 53 5.3 41.5
02:30 1022 30.18 851 25.13 14.4 58 54 5.3 41.6
02:35 1022 30.18 851 25.13 14.1 57.4 55 5.4 41.7
02:40 1022 30.18 851 25.13 13.9 57 56 5.3 41.6
02:45 1022 30.18 851 25.13 13.8 56.8 56 5.3 41.5
02:50 1022 30.18 851 25.13 13.7 56.7 56 5.2 41.4
02:55 1022 30.18 851 25.13 13.7 56.6 57 5.4 41.7
03:00 1022 30.18 851 25.13 13.8 56.8 56 5.3 41.5
03:05 1022 30.18 851 25.13 13.8 56.9 57 5.4 41.8
03:10 1022 30.18 851 25.13 13.8 56.8 56 5.3 41.6
03:15 1022 30.18 851 25.13 13.7 56.7 56 5.2 41.3
03:20 1022 30.18 851 25.13 13.8 56.8 56 5.1 41.2
03:25 1022 30.18 851 25.13 13.7 56.7 56 5.1 41.2
03:30 1022 30.18 851 25.13 13.6 56.5 56 5.2 41.3
03:35 1022 30.18 851 25.13 13.5 56.2 57 5.2 41.3
03:40 1022 30.18 851 25.13 13.5 56.3 57 5.1 41.2
03:45 1022 30.18 851 25.13 13.4 56.2 57 5.2 41.3
03:50 1022 30.18 851 25.13 13.2 55.7 58 5.2 41.3
03:55 1022 30.18 851 25.13 13.1 55.6 59 5.4 41.6
04:00 1022 30.18 851 25.13 12.9 55.1 59 5.2 41.3
04:05 1022 30.18 851 25.13 12.7 54.8 60 5.1 41.2
04:10 1022 30.18 851 25.13 12.5 54.5 60 5 41
04:15 1022 30.18 851 25.13 12.5 54.5 60 5 41
04:20 1022 30.18 851 25.13 12.7 54.9 57 4.6 40.3
04:25 1022 30.18 851 25.13 13.2 55.7 56 4.7 40.4
04:30 1022 30.18 851 25.13 13.3 55.9 57 5 41
04:35 1022 30.18 851 25.13 13 55.4 60 5.4 41.8
04:40 1022 30.18 851 25.13 12.3 54.2 64 5.8 42.4
04:45 1022 30.18 851 25.13 11.6 52.9 66 5.4 41.8
04:50 1022 30.18 851 25.13 11.4 52.5 64 4.9 40.8
04:55 1022 30.18 851 25.13 11.9 53.4 61 4.8 40.6
05:00 1022 30.18 851 25.13 12.3 54.1 60 4.7 40.4
05:05 1022 30.18 851 25.13 12.6 54.6 59 4.9 40.7
05:10 1022 30.18 851 25.13 12.3 54.2 61 5 41.1
05:15 1022 30.18 851 25.13 12 53.6 60 4.6 40.3
05:20 1022 30.18 851 25.13 12.4 54.3 59 4.6 40.3
05:25 1022 30.18 852 25.16 12.6 54.8 58 4.7 40.5
05:30 1022 30.18 852 25.16 12.7 54.9 58 4.8 40.6
05:35 1022 30.18 852 25.16 12.8 55 58 4.7 40.4
05:40 1023 30.21 852 25.16 12.9 55.2 60 5.3 41.5
05:45 1023 30.21 852 25.16 12.5 54.6 59 4.9 40.9
05:50 1023 30.21 852 25.16 12.9 55.2 56 4.5 40.1
05:55 1023 30.21 852 25.16 13.3 56 57 5.1 41.1
06:00 1023 30.21 852 25.16 13.3 56 57 5.1 41.3
06:05 1023 30.21 852 25.16 13.4 56.1 56 4.8 40.7
06:10 1023 30.21 852 25.16 13.6 56.5 56 5 41
06:15 1023 30.21 852 25.16 13.8 56.8 55 5 41
06:20 1023 30.21 852 25.16 13.8 56.9 56 5.2 41.3
06:25 1023 30.21 852 25.16 13.9 57.1 55 5.1 41.3
06:30 1023 30.21 852 25.16 14.2 57.6 54 5.2 41.3
06:35 1023 30.21 852 25.16 14.5 58.1 52 5 40.9
06:40 1023 30.21 852 25.16 14.7 58.4 53 5.3 41.5
06:45 1023 30.21 852 25.16 15 59.1 52 5.3 41.5
06:50 1023 30.21 852 25.16 15.1 59.3 53 5.6 42.1
06:55 1023 30.21 852 25.16 15.3 59.5 50 5.2 41.3
07:00 1023 30.21 852 25.16 15.7 60.2 49 4.9 40.9
07:05 1023 30.21 852 25.16 15.9 60.7 45 4 39.1
07:10 1023 30.21 852 25.16 16.3 61.4 43 3.9 39.1
07:15 1023 30.21 852 25.16 16.3 61.3 43 3.9 39
07:20 1023 30.21 852 25.16 16.6 61.8 43 3.9 39.1
07:25 1023 30.21 852 25.16 16.9 62.5 41 3.8 38.9
07:30 1023 30.21 852 25.16 17.2 63 41 4.1 39.4
07:35 1023 30.21 852 25.16 17.2 63 42 4.3 39.8
07:40 1023 30.21 852 25.16 17.1 62.8 41 3.9 39.1
07:45 1023 30.21 852 25.16 17.3 63.2 42 4.5 40.1
07:50 1023 30.21 852 25.16 17.4 63.3 42 4.4 40
07:55 1023 30.21 852 25.16 17.7 63.9 40 4.2 39.5
08:00 1023 30.21 852 25.16 17.5 63.5 41 4.3 39.7
08:05 1023 30.21 853 25.19 17.6 63.7 40 3.9 39
08:10 1023 30.21 853 25.19 17.5 63.5 42 4.7 40.5
08:15 1023 30.21 852 25.16 17.2 63 41 3.9 39
08:20 1023 30.21 853 25.19 17.8 64 39 3.6 38.5
08:25 1023 30.21 852 25.16 18.1 64.5 38 3.6 38.5
08:30 1023 30.21 852 25.16 17.8 64.1 39 3.8 38.9
08:35 1023 30.21 853 25.19 17.6 63.7 39 3.5 38.4
08:40 1023 30.21 853 25.19 17.9 64.1 38 3.5 38.3
08:45 1023 30.21 853 25.19 18.1 64.6 37 3.3 38
08:50 1023 30.21 853 25.19 18.1 64.6 36 2.8 37
08:55 1023 30.21 853 25.19 18.2 64.7 35 2.5 36.5
09:00 1023 30.21 853 25.19 18.5 65.2 34 2.3 36.2
09:05 1023 30.21 853 25.19 19 66.2 33 2.5 36.4
09:10 1023 30.21 853 25.19 18.9 66.1 33 2.4 36.3
09:15 1023 30.21 853 25.19 18.9 66 34 2.7 36.8
09:20 1023 30.21 853 25.19 18.9 65.9 34 2.8 37
09:25 1023 30.21 853 25.19 19.1 66.4 34 2.8 37.1
09:30 1023 30.21 853 25.19 19.4 66.8 33 2.9 37.3
09:35 1023 30.21 853 25.19 19.9 67.8 31 2.6 36.6
09:40 1023 30.21 853 25.19 19.1 66.3 33 2.5 36.5
09:45 1023 30.21 853 25.19 19.4 66.9 32 2.6 36.6
09:50 1023 30.21 853 25.19 19.4 67 31 2.1 35.8
09:55 1023 30.21 852 25.16 20 67.9 30 2.1 35.7
10:00 1023 30.21 852 25.16 20.7 69.2 29 2.2 36
10:05 1023 30.21 852 25.16 20.5 69 30 2.4 36.2
10:10 1023 30.21 852 25.16 20.3 68.6 29 2 35.7
10:15 1023 30.21 852 25.16 20.6 69 30 2.4 36.3
10:20 1023 30.21 852 25.16 20.6 69.1 29 2.3 36.2
10:25 1023 30.21 852 25.16 20.5 68.8 30 2.5 36.5
10:30 1023 30.21 852 25.16 19.8 67.6 31 2.1 35.8
10:35 1023 30.21 852 25.16 20.8 69.5 29 2.3 36.2
10:40 1023 30.21 852 25.16 21.4 70.5 29 2.6 36.6
10:45 1023 30.21 852 25.16 21.4 70.6 28 2.2 35.9
10:50 1023 30.21 852 25.16 21.9 71.5 27 2 35.6
10:55 1023 30.21 852 25.16 22.3 72.2 27 2.6 36.6
11:00 1023 30.21 852 25.16 22.2 71.9 27 2.4 36.3
11:05 1023 30.21 852 25.16 22 71.5 28 2.6 36.6
11:10 1023 30.21 852 25.16 21.6 71 29 3 37.5
11:15 1023 30.21 852 25.16 21.3 70.3 29 2.7 36.8
11:20 1023 30.21 852 25.16 20.6 69.1 29 1.9 35.5
11:25 1023 30.21 852 25.16 21.3 70.4 26 1.3 34.4
11:30 1023 30.21 852 25.16 22.1 71.7 27 2.3 36.2
11:35 1022 30.18 852 25.16 22.7 72.8 27 2.8 37
11:40 1022 30.18 852 25.16 22.9 73.3 25 2 35.6
11:45 1022 30.18 852 25.16 22.8 73 26 2.5 36.5
11:50 1022 30.18 852 25.16 22.7 72.8 25 1.6 34.9
11:55 1022 30.18 851 25.13 22.7 72.9 25 1.9 35.5
12:00 1022 30.18 851 25.13 23.1 73.6 24 1.8 35.3
12:05 1022 30.18 851 25.13 23 73.4 24 1.7 35.1
12:10 1022 30.18 851 25.13 22.7 72.9 24 1.6 34.9
12:15 1022 30.18 851 25.13 22.9 73.2 25 1.8 35.2
12:20 1022 30.18 851 25.13 23 73.3 24 1.3 34.3
12:25 1022 30.18 851 25.13 23.1 73.7 24 1.9 35.4
12:30 1022 30.18 851 25.13 22.9 73.2 26 2.3 36.2
12:35 1022 30.18 851 25.13 22.7 72.9 24 1.6 34.9
12:40 1022 30.18 851 25.13 23 73.4 23 1.1 34
12:45 1022 30.18 851 25.13 23.7 74.6 24 2 35.5
12:50 1022 30.18 851 25.13 22.9 73.3 25 1.9 35.5
12:55 1022 30.18 851 25.13 22.6 72.7 25 1.9 35.5
13:00 1022 30.18 851 25.13 23 73.4 23 0.9 33.6
13:05 1022 30.18 851 25.13 23.7 74.7 21 0.7 33.2
13:10 1022 30.18 851 25.13 23.6 74.5 22 0.9 33.6
13:15 1022 30.18 851 25.13 23.8 74.9 22 1.3 34.4
13:20 1022 30.18 851 25.13 24.2 75.5 23 1.8 35.2
13:25 1022 30.18 851 25.13 23.9 75 23 1.6 34.9
13:30 1022 30.18 851 25.13 23.5 74.3 23 1.4 34.6
13:35 1022 30.18 851 25.13 23.2 73.7 23 1.2 34.2
13:40 1022 30.18 851 25.13 23.3 73.9 22 0.9 33.6
13:45 1022 30.18 851 25.13 23.5 74.3 22 1 33.8
13:50 1022 30.18 851 25.13 23.4 74 23 1.1 34
13:55 1022 30.18 851 25.13 23.8 74.8 22 1 33.9
14:00 1021 30.15 851 25.13 24.3 75.7 22 1.7 35.1
14:05 1021 30.15 851 25.13 24.1 75.4 21 0.5 32.9
14:10 1021 30.15 850 25.1 24 75.1 21 0.3 32.6
14:15 1021 30.15 850 25.1 24.6 76.2 21 0.8 33.4
14:20 1021 30.15 850 25.1 24.2 75.5 21 0.8 33.4
14:25 1021 30.15 850 25.1 23.8 74.9 21 0.5 33
14:30 1021 30.15 850 25.1 24.3 75.7 20 0.2 32.4
14:35 1021 30.15 850 25.1 24.4 76 22 1.4 34.4
14:40 1021 30.15 850 25.1 24.1 75.4 21 0.4 32.8
14:45 1021 30.15 850 25.1 23.5 74.2 23 1.3 34.3
14:50 1021 30.15 850 25.1 23.6 74.4 22 0.8 33.5
14:55 1021 30.15 850 25.1 24.2 75.5 21 0.4 32.7
15:00 1021 30.15 850 25.1 24.4 75.8 21 0.8 33.4
15:05 1021 30.15 850 25.1 24.2 75.5 21 1 33.7
15:10 1021 30.15 850 25.1 23.8 74.8 20 0 32
15:15 1021 30.15 850 25.1 24.1 75.4 21 0.7 33.2
15:20 1021 30.15 850 25.1 24.4 76 19 -0.1 31.8
15:25 1021 30.15 850 25.1 23.8 74.9 20 0 32
15:30 1021 30.15 850 25.1 23.7 74.7 20 -0.6 31
15:35 1021 30.15 850 25.1 23.7 74.7 20 -0.5 31.1
15:40 1021 30.15 850 25.1 23.7 74.7 19 -1.1 30.1
15:45 1021 30.15 850 25.1 24.1 75.4 20 -0.2 31.7
15:50 1021 30.15 850 25.1 24.3 75.7 18 -1.1 29.9
15:55 1021 30.15 850 25.1 23.7 74.7 19 -1.3 29.7
16:00 1021 30.15 850 25.1 24.1 75.4 18 -1.4 29.4
16:05 1021 30.15 850 25.1 24.6 76.3 17 -1.6 29.2
16:10 1021 30.15 850 25.1 25.4 77.6 16 -2 28.5
16:15 1021 30.15 850 25.1 26.3 79.3 16 -1.7 29
16:20 1021 30.15 850 25.1 26.4 79.5 15 -2.2 28.1
16:25 1021 30.15 850 25.1 26.2 79.2 16 -1.2 29.8
16:30 1021 30.15 850 25.1 24.8 76.6 17 -1.5 29.3
16:35 1021 30.15 850 25.1 24 75.1 18 -1.3 29.7
16:40 1020 30.12 850 25.1 24.2 75.5 18 -1.3 29.6
16:45 1020 30.12 850 25.1 24.2 75.6 18 -1.1 30
16:50 1020 30.12 850 25.1 24.6 76.2 16 -2.8 26.9
16:55 1020 30.12 850 25.1 25.1 77.2 15 -3 26.6
17:00 1020 30.12 850 25.1 25.8 78.4 15 -2.4 27.7
17:05 1020 30.12 849 25.07 25.7 78.3 15 -2.5 27.5
17:10 1020 30.12 849 25.07 25.8 78.4 15 -2.6 27.3
17:15 1020 30.12 849 25.07 25.3 77.6 15 -2.9 26.9
17:20 1020 30.12 849 25.07 25.6 78.1 15 -2.8 27
17:25 1020 30.12 849 25.07 25.6 78.1 16 -2.1 28.2
17:30 1020 30.12 849 25.07 25.8 78.4 15 -2.5 27.4
17:35 1020 30.12 849 25.07 25.7 78.3 15 -2.6 27.3
17:40 1020 30.12 849 25.07 25.7 78.3 15 -2.3 27.9
17:45 1020 30.12 849 25.07 25.6 78 16 -2.2 28
17:50 1020 30.12 849 25.07 25.5 78 17 -1.4 29.4
17:55 1020 30.12 849 25.07 25.4 77.8 17 -1.3 29.6
18:00 1020 30.12 849 25.07 25.3 77.5 16 -2.2 28
18:05 1020 30.12 849 25.07 25.2 77.4 17 -1 30.3
18:10 1020 30.12 849 25.07 25.3 77.6 17 -1.3 29.6
18:15 1020 30.12 849 25.07 25.6 78.1 17 -0.7 30.7
18:20 1020 30.12 849 25.07 25.1 77.2 17 -1.1 29.9
18:25 1020 30.12 849 25.07 24.6 76.3 18 -1.4 29.4
18:30 1020 30.12 849 25.07 24.5 76 18 -1.5 29.4
18:35 1020 30.12 849 25.07 24.4 75.9 18 -1 30.2
18:40 1020 30.12 849 25.07 24.4 75.9 18 -1.2 29.9
18:45 1020 30.12 849 25.07 24.3 75.7 18 -1.5 29.3
18:50 1020 30.12 849 25.07 24.2 75.6 19 -0.6 30.8
18:55 1020 30.12 850 25.1 24.2 75.5 19 -0.9 30.3
19:00 1020 30.12 850 25.1 24.1 75.4 19 -0.4 31.2
19:05 1020 30.12 850 25.1 24 75.1 20 0.1 32.2
19:10 1020 30.12 850 25.1 23.8 74.9 21 0.5 32.8
19:15 1020 30.12 850 25.1 23.7 74.6 22 1 33.9
19:20 1021 30.15 850 25.1 23.5 74.3 22 0.9 33.7
19:25 1021 30.15 850 25.1 23.3 74 22 0.9 33.6
19:30 1021 30.15 850 25.1 23.2 73.7 23 1.4 34.4
19:35 1021 30.15 850 25.1 23 73.4 24 1.4 34.6
19:40 1021 30.15 850 25.1 22.8 73.1 25 2 35.5
19:45 1021 30.15 850 25.1 22.6 72.7 25 1.6 34.8
19:50 1021 30.15 850 25.1 22.5 72.5 26 2.1 35.8
19:55 1021 30.15 850 25.1 22.4 72.3 27 2.6 36.6
20:00 1021 30.15 850 25.1 22.1 71.9 26 2.1 35.9
20:05 1021 30.15 850 25.1 21.9 71.5 27 2.2 35.9
20:10 1021 30.15 851 25.13 21.8 71.2 27 2.3 36.1
20:15 1021 30.15 851 25.13 21.5 70.8 28 2.5 36.5
20:20 1022 30.18 851 25.13 21.4 70.5 28 2.5 36.5
20:25 1022 30.18 851 25.13 21.2 70.2 29 2.5 36.5
20:30 1022 30.18 851 25.13 21.1 69.9 29 2.5 36.6
20:35 1022 30.18 851 25.13 20.9 69.6 29 2.4 36.4
20:40 1022 30.18 851 25.13 20.8 69.5 29 2.3 36.2
20:45 1022 30.18 851 25.13 20.8 69.4 30 2.6 36.7
20:50 1022 30.18 851 25.13 20.7 69.2 30 2.5 36.5
20:55 1022 30.18 851 25.13 20.6 69.1 30 2.8 37
21:00 1022 30.18 851 25.13 20.5 69 30 2.5 36.6
21:05 1022 30.18 851 25.13 20.2 68.4 36 4.8 40.6
21:10 1022 30.18 851 25.13 19.3 66.8 36 4.1 39.4
21:15 1022 30.18 852 25.16 19.2 66.5 38 4.7 40.4
21:20 1022 30.18 852 25.16 19.2 66.5 36 4 39.2
21:25 1022 30.18 852 25.16 19.3 66.7 34 3 37.5
21:30 1022 30.18 852 25.16 19.4 67 34 3.1 37.6
21:35 1022 30.18 852 25.16 19.6 67.2 31 2.2 36
21:40 1022 30.18 852 25.16 19.8 67.6 30 2.1 35.7
21:45 1022 30.18 852 25.16 19.6 67.3 32 2.5 36.5
21:50 1022 30.18 852 25.16 19.4 66.9 31 2.1 35.8
21:55 1023 30.21 852 25.16 19.4 66.9 31 2.1 35.8
22:00 1022 30.18 852 25.16 19.4 66.8 31 2.2 35.9
22:05 1023 30.21 852 25.16 19.3 66.7 32 2.3 36.2
22:10 1023 30.21 852 25.16 19.3 66.7 32 2.2 35.9
22:15 1023 30.21 852 25.16 19.3 66.8 35 3.8 38.9
22:20 1023 30.21 852 25.16 18.6 65.4 40 4.7 40.5
22:25 1023 30.21 852 25.16 18.1 64.6 39 4.2 39.6
22:30 1023 30.21 852 25.16 18 64.5 38 3.7 38.7
22:35 1023 30.21 852 25.16 18.2 64.7 37 3.4 38.1
22:40 1023 30.21 852 25.16 18.3 65 35 2.9 37.2
22:45 1023 30.21 852 25.16 18.6 65.5 39 4.6 40.2
22:50 1023 30.21 852 25.16 17.9 64.3 44 5.8 42.4
22:55 1023 30.21 852 25.16 16.9 62.5 45 5 40.9
23:00 1023 30.21 852 25.16 16.6 61.8 47 5.2 41.4
23:05 1023 30.21 852 25.16 16.2 61.1 47 4.8 40.7
23:10 1023 30.21 852 25.16 16.1 61 48 5.2 41.4
23:15 1023 30.21 852 25.16 16.2 61.2 44 4.1 39.3
23:20 1023 30.21 852 25.16 16.3 61.3 45 4.4 39.9
23:25 1023 30.21 852 25.16 16.2 61.2 46 4.6 40.3
23:30 1023 30.21 852 25.16 16 60.8 45 4.2 39.6
23:35 1023 30.21 852 25.16 15.8 60.5 47 4.5 40.1
23:40 1023 30.21 852 25.16 15.6 60 47 4.3 39.8
23:45 1023 30.21 852 25.16 15.4 59.8 46 4.1 39.4
23:50 1023 30.21 852 25.16 15.5 59.8 46 4.1 39.4
23:55 1023 30.21 852 25.16 15.5 59.8 46 3.9 39
24:00 1023 30.21 852 25.16 15.6 60 48 4.7 40.4